sensor_id;sensor_type;location;lat;lon;timestamp;pressure;altitude;pressure_sealevel;temperature;humidity
25080;BME280;13071;48.868;9.996;2022-09-01T00:00:55;96789.44;;;14.80;97.03
25080;BME280;13071;48.868;9.996;2022-09-01T00:03:22;96785.06;;;14.76;97.10
25080;BME280;13071;48.868;9.996;2022-09-01T00:05:50;96784.78;;;14.81;97.03
25080;BME280;13071;48.868;9.996;2022-09-01T00:08:21;96782.78;;;14.78;96.86
25080;BME280;13071;48.868;9.996;2022-09-01T00:10:48;96792.38;;;14.72;97.42
25080;BME280;13071;48.868;9.996;2022-09-01T00:13:15;96791.94;;;14.69;97.74
25080;BME280;13071;48.868;9.996;2022-09-01T00:15:42;96790.50;;;14.76;97.30
25080;BME280;13071;48.868;9.996;2022-09-01T00:18:09;96781.53;;;14.75;97.63
25080;BME280;13071;48.868;9.996;2022-09-01T00:20:36;96788.41;;;14.69;97.13
25080;BME280;13071;48.868;9.996;2022-09-01T00:23:02;96779.72;;;14.63;97.64
25080;BME280;13071;48.868;9.996;2022-09-01T00:25:30;96782.00;;;14.61;97.64
25080;BME280;13071;48.868;9.996;2022-09-01T00:27:57;96778.75;;;14.56;99.03
25080;BME280;13071;48.868;9.996;2022-09-01T00:30:25;96784.72;;;14.61;98.75
25080;BME280;13071;48.868;9.996;2022-09-01T00:32:51;96781.91;;;14.58;98.25
25080;BME280;13071;48.868;9.996;2022-09-01T00:35:19;96776.91;;;14.60;98.06
25080;BME280;13071;48.868;9.996;2022-09-01T00:37:45;96779.63;;;14.60;97.96
25080;BME280;13071;48.868;9.996;2022-09-01T00:40:13;96773.75;;;14.58;99.01
25080;BME280;13071;48.868;9.996;2022-09-01T00:42:43;96764.44;;;14.59;99.31
25080;BME280;13071;48.868;9.996;2022-09-01T00:45:10;96765.75;;;14.65;99.29
25080;BME280;13071;48.868;9.996;2022-09-01T00:47:37;96770.94;;;14.54;99.51
25080;BME280;13071;48.868;9.996;2022-09-01T00:50:05;96758.53;;;14.41;100.00
25080;BME280;13071;48.868;9.996;2022-09-01T00:52:34;96764.50;;;14.47;100.00
25080;BME280;13071;48.868;9.996;2022-09-01T00:55:07;96762.91;;;14.46;100.00
25080;BME280;13071;48.868;9.996;2022-09-01T00:57:35;96755.91;;;14.45;100.00
25080;BME280;13071;48.868;9.996;2022-09-01T01:00:06;96759.44;;;14.45;100.00
25080;BME280;13071;48.868;9.996;2022-09-01T01:02:35;96761.63;;;14.40;100.00
25080;BME280;13071;48.868;9.996;2022-09-01T01:05:04;96754.47;;;14.35;100.00
25080;BME280;13071;48.868;9.996;2022-09-01T01:07:31;96739.28;;;14.18;100.00
25080;BME280;13071;48.868;9.996;2022-09-01T01:10:08;96748.41;;;14.26;100.00
25080;BME280;13071;48.868;9.996;2022-09-01T01:12:36;96750.69;;;14.24;100.00
25080;BME280;13071;48.868;9.996;2022-09-01T01:15:07;96759.41;;;14.30;100.00
25080;BME280;13071;48.868;9.996;2022-09-01T01:17:34;96761.66;;;14.27;100.00
25080;BME280;13071;48.868;9.996;2022-09-01T01:20:02;96758.41;;;14.22;100.00
25080;BME280;13071;48.868;9.996;2022-09-01T01:22:55;96756.56;;;14.10;100.00
25080;BME280;13071;48.868;9.996;2022-09-01T01:25:33;96763.50;;;14.23;100.00
25080;BME280;13071;48.868;9.996;2022-09-01T01:28:10;96751.50;;;14.24;100.00
25080;BME280;13071;48.868;9.996;2022-09-01T01:30:40;96756.13;;;14.24;100.00
25080;BME280;13071;48.868;9.996;2022-09-01T01:33:08;96756.94;;;14.24;100.00
25080;BME280;13071;48.868;9.996;2022-09-01T01:35:35;96757.00;;;14.28;100.00
25080;BME280;13071;48.868;9.996;2022-09-01T01:38:03;96748.06;;;14.27;100.00
25080;BME280;13071;48.868;9.996;2022-09-01T01:40:34;96747.25;;;14.27;100.00
25080;BME280;13071;48.868;9.996;2022-09-01T01:43:00;96749.63;;;14.28;100.00
25080;BME280;13071;48.868;9.996;2022-09-01T01:45:28;96749.97;;;14.27;100.00
25080;BME280;13071;48.868;9.996;2022-09-01T01:47:55;96761.25;;;14.25;100.00
25080;BME280;13071;48.868;9.996;2022-09-01T01:50:25;96758.25;;;14.31;100.00
25080;BME280;13071;48.868;9.996;2022-09-01T01:52:52;96754.03;;;14.33;100.00
25080;BME280;13071;48.868;9.996;2022-09-01T01:55:19;96760.63;;;14.32;100.00
25080;BME280;13071;48.868;9.996;2022-09-01T01:57:49;96752.69;;;14.27;100.00
25080;BME280;13071;48.868;9.996;2022-09-01T02:00:18;96755.16;;;14.32;100.00
25080;BME280;13071;48.868;9.996;2022-09-01T02:02:46;96750.69;;;14.24;100.00
25080;BME280;13071;48.868;9.996;2022-09-01T02:05:18;96761.31;;;14.29;100.00
25080;BME280;13071;48.868;9.996;2022-09-01T02:07:46;96757.34;;;14.26;100.00
25080;BME280;13071;48.868;9.996;2022-09-01T02:10:14;96755.25;;;14.20;100.00
25080;BME280;13071;48.868;9.996;2022-09-01T02:12:41;96758.66;;;14.17;100.00
25080;BME280;13071;48.868;9.996;2022-09-01T02:15:09;96752.88;;;14.18;100.00
25080;BME280;13071;48.868;9.996;2022-09-01T02:17:37;96749.69;;;14.16;100.00
25080;BME280;13071;48.868;9.996;2022-09-01T02:20:05;96747.44;;;14.18;100.00
25080;BME280;13071;48.868;9.996;2022-09-01T02:22:32;96745.75;;;14.14;99.46
25080;BME280;13071;48.868;9.996;2022-09-01T02:24:58;96744.09;;;14.09;99.80
25080;BME280;13071;48.868;9.996;2022-09-01T02:27:26;96750.84;;;14.00;100.00
25080;BME280;13071;48.868;9.996;2022-09-01T02:29:53;96745.28;;;13.96;100.00
25080;BME280;13071;48.868;9.996;2022-09-01T02:32:24;96746.34;;;14.07;100.00
25080;BME280;13071;48.868;9.996;2022-09-01T02:34:51;96742.22;;;13.98;100.00
25080;BME280;13071;48.868;9.996;2022-09-01T02:37:26;96746.28;;;14.04;100.00
25080;BME280;13071;48.868;9.996;2022-09-01T02:39:54;96741.25;;;13.90;100.00
25080;BME280;13071;48.868;9.996;2022-09-01T02:42:22;96741.28;;;14.06;100.00
25080;BME280;13071;48.868;9.996;2022-09-01T02:44:52;96738.56;;;14.06;100.00
25080;BME280;13071;48.868;9.996;2022-09-01T02:47:19;96734.25;;;14.05;100.00
25080;BME280;13071;48.868;9.996;2022-09-01T02:49:49;96738.56;;;14.06;100.00
25080;BME280;13071;48.868;9.996;2022-09-01T02:52:16;96738.56;;;14.06;100.00
25080;BME280;13071;48.868;9.996;2022-09-01T02:54:45;96740.75;;;14.00;100.00
25080;BME280;13071;48.868;9.996;2022-09-01T02:57:14;96735.47;;;14.07;100.00
25080;BME280;13071;48.868;9.996;2022-09-01T02:59:41;96742.75;;;14.03;100.00
25080;BME280;13071;48.868;9.996;2022-09-01T03:02:08;96740.75;;;14.00;100.00
25080;BME280;13071;48.868;9.996;2022-09-01T03:04:35;96738.38;;;13.99;100.00
25080;BME280;13071;48.868;9.996;2022-09-01T03:07:05;96737.66;;;13.86;100.00
25080;BME280;13071;48.868;9.996;2022-09-01T03:09:33;96740.13;;;13.91;100.00
25080;BME280;13071;48.868;9.996;2022-09-01T03:12:02;96743.28;;;13.93;100.00
25080;BME280;13071;48.868;9.996;2022-09-01T03:14:31;96741.44;;;13.97;100.00
25080;BME280;13071;48.868;9.996;2022-09-01T03:16:58;96739.84;;;13.96;100.00
25080;BME280;13071;48.868;9.996;2022-09-01T03:19:24;96736.97;;;14.05;100.00
25080;BME280;13071;48.868;9.996;2022-09-01T03:21:51;96737.59;;;14.14;100.00
25080;BME280;13071;48.868;9.996;2022-09-01T03:24:19;96737.88;;;14.24;100.00
25080;BME280;13071;48.868;9.996;2022-09-01T03:26:46;96733.56;;;14.23;100.00
25080;BME280;13071;48.868;9.996;2022-09-01T03:29:14;96737.50;;;14.26;100.00
25080;BME280;13071;48.868;9.996;2022-09-01T03:31:40;96737.16;;;14.27;100.00
25080;BME280;13071;48.868;9.996;2022-09-01T03:34:08;96737.88;;;14.24;100.00
25080;BME280;13071;48.868;9.996;2022-09-01T03:36:37;96740.16;;;14.22;100.00
25080;BME280;13071;48.868;9.996;2022-09-01T03:39:04;96734.78;;;14.26;100.00
25080;BME280;13071;48.868;9.996;2022-09-01T03:41:35;96740.34;;;14.30;100.00
25080;BME280;13071;48.868;9.996;2022-09-01T03:44:02;96744.34;;;14.36;100.00
25080;BME280;13071;48.868;9.996;2022-09-01T03:46:29;96737.66;;;14.45;100.00
25080;BME280;13071;48.868;9.996;2022-09-01T03:48:58;96735.09;;;14.52;100.00
25080;BME280;13071;48.868;9.996;2022-09-01T03:51:27;96735.34;;;14.63;100.00
25080;BME280;13071;48.868;9.996;2022-09-01T03:53:55;96737.19;;;14.59;100.00
25080;BME280;13071;48.868;9.996;2022-09-01T03:56:25;96734.28;;;14.67;100.00
25080;BME280;13071;48.868;9.996;2022-09-01T03:58:55;96735.16;;;14.72;100.00
25080;BME280;13071;48.868;9.996;2022-09-01T04:01:23;96727.50;;;14.77;100.00
25080;BME280;13071;48.868;9.996;2022-09-01T04:03:50;96728.28;;;14.78;100.00
25080;BME280;13071;48.868;9.996;2022-09-01T04:06:18;96731.19;;;14.85;100.00
25080;BME280;13071;48.868;9.996;2022-09-01T04:08:45;96727.41;;;14.89;100.00
25080;BME280;13071;48.868;9.996;2022-09-01T04:11:15;96732.13;;;14.92;100.00
25080;BME280;13071;48.868;9.996;2022-09-01T04:13:43;96731.13;;;15.00;100.00
25080;BME280;13071;48.868;9.996;2022-09-01T04:16:21;96733.44;;;14.98;100.00
25080;BME280;13071;48.868;9.996;2022-09-01T04:19:06;96726.84;;;14.99;100.00
25080;BME280;13071;48.868;9.996;2022-09-01T04:21:41;96736.97;;;14.99;100.00
25080;BME280;13071;48.868;9.996;2022-09-01T04:24:08;96727.72;;;15.03;100.00
25080;BME280;13071;48.868;9.996;2022-09-01T04:26:37;96732.44;;;15.06;100.00
25080;BME280;13071;48.868;9.996;2022-09-01T04:29:05;96731.59;;;15.02;100.00
25080;BME280;13071;48.868;9.996;2022-09-01T04:31:35;96727.84;;;15.10;100.00
25080;BME280;13071;48.868;9.996;2022-09-01T04:34:05;96732.63;;;15.13;100.00
25080;BME280;13071;48.868;9.996;2022-09-01T04:36:38;96733.31;;;15.10;100.00
25080;BME280;13071;48.868;9.996;2022-09-01T04:39:06;96736.16;;;14.98;100.00
25080;BME280;13071;48.868;9.996;2022-09-01T04:41:36;96733.88;;;15.00;100.00
25080;BME280;13071;48.868;9.996;2022-09-01T04:44:05;96737.38;;;15.01;100.00
25080;BME280;13071;48.868;9.996;2022-09-01T04:46:35;96741.25;;;15.00;100.00
25080;BME280;13071;48.868;9.996;2022-09-01T04:49:04;96734.66;;;15.01;100.00
25080;BME280;13071;48.868;9.996;2022-09-01T04:51:34;96732.72;;;15.01;100.00
25080;BME280;13071;48.868;9.996;2022-09-01T04:54:03;96744.59;;;15.09;100.00
25080;BME280;13071;48.868;9.996;2022-09-01T04:56:37;96743.88;;;15.12;100.00
25080;BME280;13071;48.868;9.996;2022-09-01T04:59:04;96738.13;;;15.17;100.00
25080;BME280;13071;48.868;9.996;2022-09-01T05:01:34;96746.66;;;15.16;100.00
25080;BME280;13071;48.868;9.996;2022-09-01T05:04:08;96748.25;;;15.17;100.00
25080;BME280;13071;48.868;9.996;2022-09-01T05:06:35;96742.88;;;15.20;100.00
25080;BME280;13071;48.868;9.996;2022-09-01T05:09:04;96740.41;;;15.15;100.00
25080;BME280;13071;48.868;9.996;2022-09-01T05:11:32;96742.34;;;15.14;100.00
25080;BME280;13071;48.868;9.996;2022-09-01T05:14:00;96740.59;;;15.22;100.00
25080;BME280;13071;48.868;9.996;2022-09-01T05:16:27;96732.13;;;15.27;100.00
25080;BME280;13071;48.868;9.996;2022-09-01T05:18:55;96732.47;;;15.26;100.00
25080;BME280;13071;48.868;9.996;2022-09-01T05:21:23;96727.97;;;15.14;100.00
25080;BME280;13071;48.868;9.996;2022-09-01T05:23:52;96733.03;;;15.16;100.00
25080;BME280;13071;48.868;9.996;2022-09-01T05:26:22;96734.94;;;14.96;100.00
25080;BME280;13071;48.868;9.996;2022-09-01T05:28:52;96734.84;;;14.92;100.00
25080;BME280;13071;48.868;9.996;2022-09-01T05:31:19;96737.75;;;14.99;100.00
25080;BME280;13071;48.868;9.996;2022-09-01T05:33:47;96732.44;;;15.06;100.00
25080;BME280;13071;48.868;9.996;2022-09-01T05:36:18;96734.75;;;15.04;100.00
25080;BME280;13071;48.868;9.996;2022-09-01T05:38:46;96733.56;;;15.21;100.00
25080;BME280;13071;48.868;9.996;2022-09-01T05:41:14;96733.19;;;15.23;100.00
25080;BME280;13071;48.868;9.996;2022-09-01T05:43:43;96736.84;;;15.30;100.00
25080;BME280;13071;48.868;9.996;2022-09-01T05:46:15;96737.09;;;15.41;100.00
25080;BME280;13071;48.868;9.996;2022-09-01T05:48:43;96740.59;;;15.41;100.00
25080;BME280;13071;48.868;9.996;2022-09-01T05:51:11;96738.38;;;15.47;100.00
25080;BME280;13071;48.868;9.996;2022-09-01T05:53:41;96741.13;;;15.47;100.00
25080;BME280;13071;48.868;9.996;2022-09-01T05:56:09;96742.53;;;15.41;100.00
25080;BME280;13071;48.868;9.996;2022-09-01T05:58:38;96746.31;;;15.52;100.00
25080;BME280;13071;48.868;9.996;2022-09-01T06:01:09;96750.69;;;15.57;100.00
25080;BME280;13071;48.868;9.996;2022-09-01T06:03:41;96745.78;;;15.46;100.00
25080;BME280;13071;48.868;9.996;2022-09-01T06:06:09;96748.41;;;15.59;100.00
25080;BME280;13071;48.868;9.996;2022-09-01T06:08:37;96753.63;;;15.67;100.00
25080;BME280;13071;48.868;9.996;2022-09-01T06:11:09;96746.44;;;15.59;100.00
25080;BME280;13071;48.868;9.996;2022-09-01T06:13:38;96758.81;;;15.72;100.00
25080;BME280;13071;48.868;9.996;2022-09-01T06:16:06;96748.25;;;15.71;100.00
25080;BME280;13071;48.868;9.996;2022-09-01T06:18:33;96750.69;;;15.76;100.00
25080;BME280;13071;48.868;9.996;2022-09-01T06:21:02;96748.81;;;15.80;100.00
25080;BME280;13071;48.868;9.996;2022-09-01T06:23:29;96741.06;;;15.82;100.00
25080;BME280;13071;48.868;9.996;2022-09-01T06:25:56;96744.88;;;15.77;100.00
25080;BME280;13071;48.868;9.996;2022-09-01T06:28:25;96744.09;;;15.58;100.00
25080;BME280;13071;48.868;9.996;2022-09-01T06:30:53;96745.75;;;15.62;100.00
25080;BME280;13071;48.868;9.996;2022-09-01T06:33:22;96751.69;;;15.87;100.00
25080;BME280;13071;48.868;9.996;2022-09-01T06:35:49;96754.94;;;15.73;100.00
25080;BME280;13071;48.868;9.996;2022-09-01T06:38:17;96751.41;;;15.92;100.00
25080;BME280;13071;48.868;9.996;2022-09-01T06:40:44;96749.22;;;16.01;100.00
25080;BME280;13071;48.868;9.996;2022-09-01T06:43:12;96745.25;;;15.98;100.00
25080;BME280;13071;48.868;9.996;2022-09-01T06:45:43;96752.09;;;16.08;100.00
25080;BME280;13071;48.868;9.996;2022-09-01T06:48:11;96742.88;;;16.39;100.00
25080;BME280;13071;48.868;9.996;2022-09-01T06:50:41;96740.88;;;16.59;100.00
25080;BME280;13071;48.868;9.996;2022-09-01T06:53:08;96747.44;;;16.77;99.68
25080;BME280;13071;48.868;9.996;2022-09-01T06:55:37;96747.75;;;16.98;99.25
25080;BME280;13071;48.868;9.996;2022-09-01T06:58:04;96751.13;;;16.88;99.27
25080;BME280;13071;48.868;9.996;2022-09-01T07:00:32;96757.38;;;17.15;96.61
25080;BME280;13071;48.868;9.996;2022-09-01T07:03:08;96759.75;;;17.16;99.09
25080;BME280;13071;48.868;9.996;2022-09-01T07:05:37;96755.63;;;17.03;96.30
25080;BME280;13071;48.868;9.996;2022-09-01T07:08:06;96748.84;;;17.20;95.33
25080;BME280;13071;48.868;9.996;2022-09-01T07:10:39;96755.97;;;17.24;94.59
25080;BME280;13071;48.868;9.996;2022-09-01T07:13:11;96760.00;;;17.08;96.07
25080;BME280;13071;48.868;9.996;2022-09-01T07:15:47;96762.25;;;17.58;93.22
25080;BME280;13071;48.868;9.996;2022-09-01T07:18:16;96758.91;;;17.68;91.28
25080;BME280;13071;48.868;9.996;2022-09-01T07:20:45;96756.75;;;17.85;89.74
25080;BME280;13071;48.868;9.996;2022-09-01T07:23:14;96760.47;;;18.03;87.52
25080;BME280;13071;48.868;9.996;2022-09-01T07:25:42;96753.03;;;18.00;86.93
25080;BME280;13071;48.868;9.996;2022-09-01T07:28:10;96764.59;;;17.86;87.56
25080;BME280;13071;48.868;9.996;2022-09-01T07:30:40;96747.31;;;17.79;85.54
25080;BME280;13071;48.868;9.996;2022-09-01T07:33:08;96758.94;;;17.72;89.80
25080;BME280;13071;48.868;9.996;2022-09-01T07:35:40;96754.69;;;17.75;88.78
25080;BME280;13071;48.868;9.996;2022-09-01T07:38:07;96765.25;;;17.76;90.29
25080;BME280;13071;48.868;9.996;2022-09-01T07:40:35;96766.13;;;17.84;88.10
25080;BME280;13071;48.868;9.996;2022-09-01T07:43:05;96767.75;;;17.58;90.23
25080;BME280;13071;48.868;9.996;2022-09-01T07:45:35;96772.94;;;17.67;90.18
25080;BME280;13071;48.868;9.996;2022-09-01T07:48:04;96768.69;;;17.69;89.42
25080;BME280;13071;48.868;9.996;2022-09-01T07:50:31;96767.53;;;17.71;89.46
25080;BME280;13071;48.868;9.996;2022-09-01T07:52:59;96770.69;;;17.73;89.05
25080;BME280;13071;48.868;9.996;2022-09-01T07:55:26;96781.50;;;17.62;91.26
25080;BME280;13071;48.868;9.996;2022-09-01T07:57:53;96779.28;;;17.71;91.65
25080;BME280;13071;48.868;9.996;2022-09-01T08:00:20;96780.56;;;17.81;87.96
25080;BME280;13071;48.868;9.996;2022-09-01T08:02:47;96782.72;;;17.38;87.60
25080;BME280;13071;48.868;9.996;2022-09-01T08:05:15;96783.06;;;17.63;88.78
25080;BME280;13071;48.868;9.996;2022-09-01T08:07:47;96794.19;;;17.77;88.13
25080;BME280;13071;48.868;9.996;2022-09-01T08:10:15;96788.13;;;17.91;85.20
25080;BME280;13071;48.868;9.996;2022-09-01T08:12:42;96794.91;;;18.00;84.96
25080;BME280;13071;48.868;9.996;2022-09-01T08:15:09;96789.25;;;18.20;83.76
25080;BME280;13071;48.868;9.996;2022-09-01T08:17:38;96790.50;;;17.96;84.05
25080;BME280;13071;48.868;9.996;2022-09-01T08:20:05;96798.03;;;18.02;83.23
25080;BME280;13071;48.868;9.996;2022-09-01T08:22:33;96802.69;;;17.98;83.24
25080;BME280;13071;48.868;9.996;2022-09-01T08:25:01;96799.16;;;17.98;83.55
25080;BME280;13071;48.868;9.996;2022-09-01T08:27:30;96801.44;;;17.92;84.04
25080;BME280;13071;48.868;9.996;2022-09-01T08:29:57;96804.50;;;17.87;84.49
25080;BME280;13071;48.868;9.996;2022-09-01T08:32:24;96805.16;;;17.77;84.34
25080;BME280;13071;48.868;9.996;2022-09-01T08:34:52;96804.81;;;17.82;84.22
25080;BME280;13071;48.868;9.996;2022-09-01T08:37:18;96809.78;;;17.73;85.41
25080;BME280;13071;48.868;9.996;2022-09-01T08:39:45;96807.88;;;17.77;84.57
25080;BME280;13071;48.868;9.996;2022-09-01T08:42:19;96807.63;;;17.86;84.80
25080;BME280;13071;48.868;9.996;2022-09-01T08:44:56;96806.19;;;17.95;83.59
25080;BME280;13071;48.868;9.996;2022-09-01T08:47:24;96806.03;;;18.18;83.77
25080;BME280;13071;48.868;9.996;2022-09-01T08:49:51;96808.56;;;18.34;82.98
25080;BME280;13071;48.868;9.996;2022-09-01T08:52:23;96801.25;;;18.45;81.54
25080;BME280;13071;48.868;9.996;2022-09-01T08:54:55;96808.88;;;18.62;81.63
25080;BME280;13071;48.868;9.996;2022-09-01T08:57:28;96806.72;;;18.85;80.33
25080;BME280;13071;48.868;9.996;2022-09-01T08:59:58;96806.81;;;18.96;78.90
25080;BME280;13071;48.868;9.996;2022-09-01T09:02:40;96810.44;;;19.11;77.89
25080;BME280;13071;48.868;9.996;2022-09-01T09:05:25;96811.34;;;19.25;78.19
25080;BME280;13071;48.868;9.996;2022-09-01T09:08:27;96806.25;;;19.27;77.11
25080;BME280;13071;48.868;9.996;2022-09-01T09:10:58;96815.22;;;19.21;77.71
25080;BME280;13071;48.868;9.996;2022-09-01T09:13:34;96813.66;;;19.20;77.48
25080;BME280;13071;48.868;9.996;2022-09-01T09:16:07;96817.63;;;19.26;77.13
25080;BME280;13071;48.868;9.996;2022-09-01T09:18:39;96818.75;;;19.21;75.90
25080;BME280;13071;48.868;9.996;2022-09-01T09:21:13;96819.97;;;19.27;76.47
25080;BME280;13071;48.868;9.996;2022-09-01T09:23:45;96814.59;;;19.41;76.92
25080;BME280;13071;48.868;9.996;2022-09-01T09:26:13;96812.97;;;19.33;77.11
25080;BME280;13071;48.868;9.996;2022-09-01T09:28:41;96810.00;;;19.60;76.13
25080;BME280;13071;48.868;9.996;2022-09-01T09:31:29;96809.19;;;19.52;76.17
25080;BME280;13071;48.868;9.996;2022-09-01T09:33:57;96808.53;;;19.73;74.84
25080;BME280;13071;48.868;9.996;2022-09-01T09:36:29;96803.91;;;19.91;73.54
25080;BME280;13071;48.868;9.996;2022-09-01T09:39:08;96812.25;;;20.19;74.78
25080;BME280;13071;48.868;9.996;2022-09-01T09:41:36;96807.63;;;20.48;71.77
25080;BME280;13071;48.868;9.996;2022-09-01T09:44:14;96809.22;;;20.53;71.66
25080;BME280;13071;48.868;9.996;2022-09-01T09:46:44;96804.91;;;20.55;71.01
25080;BME280;13071;48.868;9.996;2022-09-01T09:49:15;96809.50;;;20.23;71.41
25080;BME280;13071;48.868;9.996;2022-09-01T09:51:46;96806.00;;;20.30;71.69
25080;BME280;13071;48.868;9.996;2022-09-01T09:54:19;96808.75;;;20.26;73.28
25080;BME280;13071;48.868;9.996;2022-09-01T09:56:48;96801.63;;;20.14;72.00
25080;BME280;13071;48.868;9.996;2022-09-01T09:59:18;96792.22;;;20.15;72.00
25080;BME280;13071;48.868;9.996;2022-09-01T10:01:46;96812.91;;;19.26;73.27
25080;BME280;13071;48.868;9.996;2022-09-01T10:04:31;96796.47;;;19.30;73.41
25080;BME280;13071;48.868;9.996;2022-09-01T10:06:58;96813.59;;;19.13;73.55
25080;BME280;13071;48.868;9.996;2022-09-01T10:09:34;96806.06;;;18.99;75.00
25080;BME280;13071;48.868;9.996;2022-09-01T10:12:02;96807.97;;;18.95;75.49
25080;BME280;13071;48.868;9.996;2022-09-01T10:14:37;96808.81;;;19.03;76.02
25080;BME280;13071;48.868;9.996;2022-09-01T10:17:11;96810.34;;;19.00;76.81
25080;BME280;13071;48.868;9.996;2022-09-01T10:19:48;96807.56;;;18.89;77.79
25080;BME280;13071;48.868;9.996;2022-09-01T10:22:16;96804.88;;;19.00;76.06
25080;BME280;13071;48.868;9.996;2022-09-01T10:24:43;96806.91;;;19.10;76.35
25080;BME280;13071;48.868;9.996;2022-09-01T10:27:14;96805.56;;;18.90;76.00
25080;BME280;13071;48.868;9.996;2022-09-01T10:29:45;96808.41;;;19.01;76.28
25080;BME280;13071;48.868;9.996;2022-09-01T10:32:19;96805.44;;;18.72;77.50
25080;BME280;13071;48.868;9.996;2022-09-01T10:34:46;96795.84;;;18.96;77.03
25080;BME280;13071;48.868;9.996;2022-09-01T10:37:14;96803.06;;;19.18;78.03
25080;BME280;13071;48.868;9.996;2022-09-01T10:40:14;96803.66;;;19.45;75.75
25080;BME280;13071;48.868;9.996;2022-09-01T10:42:42;96802.13;;;19.55;75.17
25080;BME280;13071;48.868;9.996;2022-09-01T10:45:19;96807.31;;;19.67;73.52
25080;BME280;13071;48.868;9.996;2022-09-01T10:47:55;96808.09;;;19.67;74.40
25080;BME280;13071;48.868;9.996;2022-09-01T10:50:26;96800.69;;;19.75;74.04
25080;BME280;13071;48.868;9.996;2022-09-01T10:53:03;96804.50;;;19.56;74.59
25080;BME280;13071;48.868;9.996;2022-09-01T10:55:39;96802.72;;;19.92;73.47
25080;BME280;13071;48.868;9.996;2022-09-01T10:58:28;96806.66;;;19.98;73.29
25080;BME280;13071;48.868;9.996;2022-09-01T11:01:00;96795.34;;;20.07;72.41
25080;BME280;13071;48.868;9.996;2022-09-01T11:03:48;96794.22;;;20.22;72.47
25080;BME280;13071;48.868;9.996;2022-09-01T11:06:45;96791.09;;;20.27;71.54
25080;BME280;13071;48.868;9.996;2022-09-01T11:09:21;96800.19;;;20.45;70.91
25080;BME280;13071;48.868;9.996;2022-09-01T11:12:08;96801.72;;;20.39;71.72
25080;BME280;13071;48.868;9.996;2022-09-01T11:14:47;96796.63;;;20.41;72.58
25080;BME280;13071;48.868;9.996;2022-09-01T11:17:16;96798.63;;;20.73;71.31
25080;BME280;13071;48.868;9.996;2022-09-01T11:19:46;96797.09;;;20.86;71.90
25080;BME280;13071;48.868;9.996;2022-09-01T11:22:31;96793.50;;;20.53;70.75
25080;BME280;13071;48.868;9.996;2022-09-01T11:28:05;96792.75;;;20.88;70.02
25080;BME280;13071;48.868;9.996;2022-09-01T11:30:35;96797.81;;;20.58;70.62
25080;BME280;13071;48.868;9.996;2022-09-01T11:33:15;96792.75;;;21.09;68.08
25080;BME280;13071;48.868;9.996;2022-09-01T11:35:58;96793.94;;;21.23;67.07
25080;BME280;13071;48.868;9.996;2022-09-01T11:38:26;96790.78;;;21.45;66.44
25080;BME280;13071;48.868;9.996;2022-09-01T11:40:55;96793.16;;;21.40;66.38
25080;BME280;13071;48.868;9.996;2022-09-01T11:43:23;96793.94;;;21.33;67.21
25080;BME280;13071;48.868;9.996;2022-09-01T11:46:01;96785.69;;;20.94;68.64
25080;BME280;13071;48.868;9.996;2022-09-01T11:48:31;96791.16;;;21.12;67.68
25080;BME280;13071;48.868;9.996;2022-09-01T11:51:00;96785.25;;;21.42;67.23
25080;BME280;13071;48.868;9.996;2022-09-01T11:53:28;96780.19;;;21.23;65.91
25080;BME280;13071;48.868;9.996;2022-09-01T11:55:56;96785.66;;;21.44;65.23
25080;BME280;13071;48.868;9.996;2022-09-01T11:58:36;96767.56;;;21.50;64.64
25080;BME280;13071;48.868;9.996;2022-09-01T12:01:14;96772.31;;;21.35;66.40
25080;BME280;13071;48.868;9.996;2022-09-01T12:03:41;96768.75;;;21.38;66.95
25080;BME280;13071;48.868;9.996;2022-09-01T12:06:10;96762.81;;;21.54;65.12
25080;BME280;13071;48.868;9.996;2022-09-01T12:08:40;96764.78;;;21.46;65.96
25080;BME280;13071;48.868;9.996;2022-09-01T12:11:09;96755.28;;;21.72;66.19
25080;BME280;13071;48.868;9.996;2022-09-01T12:13:37;96757.34;;;21.50;65.86
25080;BME280;13071;48.868;9.996;2022-09-01T12:16:07;96755.66;;;21.78;65.34
25080;BME280;13071;48.868;9.996;2022-09-01T12:18:35;96752.50;;;21.83;63.70
25080;BME280;13071;48.868;9.996;2022-09-01T12:21:06;96754.06;;;21.84;63.52
25080;BME280;13071;48.868;9.996;2022-09-01T12:23:36;96746.59;;;21.84;64.12
25080;BME280;13071;48.868;9.996;2022-09-01T12:26:09;96741.56;;;21.58;66.82
25080;BME280;13071;48.868;9.996;2022-09-01T12:28:38;96759.66;;;21.52;66.53
25080;BME280;13071;48.868;9.996;2022-09-01T12:31:10;96766.03;;;21.17;67.62
25080;BME280;13071;48.868;9.996;2022-09-01T12:33:38;96751.50;;;21.20;66.14
25080;BME280;13071;48.868;9.996;2022-09-01T12:36:21;96751.88;;;20.80;67.20
25080;BME280;13071;48.868;9.996;2022-09-01T12:38:51;96752.28;;;20.60;68.58
25080;BME280;13071;48.868;9.996;2022-09-01T12:41:30;96755.81;;;20.79;67.50
25080;BME280;13071;48.868;9.996;2022-09-01T12:44:27;96756.59;;;20.90;66.74
25080;BME280;13071;48.868;9.996;2022-09-01T12:46:57;96758.16;;;20.87;67.71
25080;BME280;13071;48.868;9.996;2022-09-01T12:49:25;96749.91;;;20.84;67.23
25080;BME280;13071;48.868;9.996;2022-09-01T12:52:10;96755.00;;;21.28;65.65
25080;BME280;13071;48.868;9.996;2022-09-01T12:54:39;96751.44;;;21.38;65.70
25080;BME280;13071;48.868;9.996;2022-09-01T12:57:06;96751.09;;;21.15;65.32
25080;BME280;13071;48.868;9.996;2022-09-01T12:59:33;96758.19;;;21.01;66.02
25080;BME280;13071;48.868;9.996;2022-09-01T13:02:27;96752.28;;;20.78;66.27
25080;BME280;13071;48.868;9.996;2022-09-01T13:05:17;96748.34;;;20.83;65.73
25080;BME280;13071;48.868;9.996;2022-09-01T13:07:43;96751.09;;;20.79;66.60
25080;BME280;13071;48.868;9.996;2022-09-01T13:10:11;96749.53;;;21.06;64.83
25080;BME280;13071;48.868;9.996;2022-09-01T13:12:39;96739.31;;;21.21;64.77
25080;BME280;13071;48.868;9.996;2022-09-01T13:15:07;96738.88;;;21.12;64.85